Time;durP1;ratioP1;P1;durP2;ratioP2;P2;SDS_P1;SDS_P2;PMS_P1;PMS_P2;Temp;Humidity;BMP_temperature;BMP_pressure;BME280_temperature;BME280_humidity;BME280_pressure;Samples;Min_cycle;Max_cycle;Signal;HPM_P1;HPM_P2
2021/09/26 00:00:43;;;;;;;35.58;21.45;;;;;;;15.21;84.29;101493.34;5092525;28;20024;-60
2021/09/26 00:03:08;;;;;;;34.35;20.77;;;;;;;15.24;84.13;101492.47;5113777;28;20096;-61
2021/09/26 00:05:33;;;;;;;34.22;21.23;;;;;;;15.25;84.04;101492.41;5103781;28;20037;-60
2021/09/26 00:07:59;;;;;;;35.50;21.15;;;;;;;15.28;83.53;101488.88;5102956;28;20035;-60
2021/09/26 00:10:24;;;;;;;34.83;22.75;;;;;;;15.30;83.94;101487.94;5103588;28;20033;-60
2021/09/26 00:12:49;;;;;;;38.45;22.17;;;;;;;15.33;83.61;101487.03;5097070;28;20021;-61
2021/09/26 00:15:19;;;;;;;36.97;21.00;;;;;;;15.35;83.82;101488.78;5119321;28;20579;-60
2021/09/26 00:17:46;;;;;;;34.05;21.20;;;;;;;15.35;83.11;101486.13;5116476;28;20027;-61
2021/09/26 00:20:13;;;;;;;35.42;21.50;;;;;;;15.38;82.95;101482.56;5100051;28;20060;-60
2021/09/26 00:22:39;;;;;;;34.53;20.98;;;;;;;15.41;83.09;101490.50;5115517;28;20123;-61
2021/09/26 00:25:05;;;;;;;35.70;21.33;;;;;;;15.39;83.24;101490.50;5100933;28;20140;-60
2021/09/26 00:27:31;;;;;;;33.05;21.55;;;;;;;15.37;83.72;101483.47;5103432;28;20036;-61
2021/09/26 00:29:56;;;;;;;35.75;21.95;;;;;;;15.34;83.35;101486.16;5101970;28;20093;-61
2021/09/26 00:32:21;;;;;;;35.80;20.63;;;;;;;15.35;83.34;101482.63;5089934;28;20484;-60
2021/09/26 00:34:47;;;;;;;35.75;21.58;;;;;;;15.35;83.54;101487.91;5097613;28;20039;-61
2021/09/26 00:37:13;;;;;;;36.78;22.23;;;;;;;15.34;83.46;101492.31;5108375;28;20034;-61
2021/09/26 00:39:38;;;;;;;35.08;21.02;;;;;;;15.35;83.84;101495.88;5106017;28;20067;-61
2021/09/26 00:42:04;;;;;;;34.58;22.20;;;;;;;15.33;83.58;101494.97;5090056;28;20500;-60
2021/09/26 00:44:29;;;;;;;35.38;21.60;;;;;;;15.33;83.67;101481.72;5106920;28;20058;-61
2021/09/26 00:46:56;;;;;;;37.58;22.73;;;;;;;15.32;83.63;101475.56;5111043;28;20035;-61
2021/09/26 00:49:21;;;;;;;35.78;21.17;;;;;;;15.32;83.65;101480.88;5109471;28;20020;-61
2021/09/26 00:51:48;;;;;;;31.02;21.80;;;;;;;15.32;83.60;101491.47;5115932;28;20024;-60
2021/09/26 00:54:15;;;;;;;34.28;21.67;;;;;;;15.31;83.79;101487.06;5109014;28;20034;-60
2021/09/26 00:56:41;;;;;;;34.83;21.95;;;;;;;15.29;83.68;101494.16;5107780;28;20031;-60
2021/09/26 00:59:06;;;;;;;33.38;21.15;;;;;;;15.30;83.71;101489.72;5080583;28;20043;-60
2021/09/26 01:01:32;;;;;;;31.33;20.67;;;;;;;15.29;83.75;101483.56;5103367;28;20032;-61
2021/09/26 01:04:00;;;;;;;38.95;22.10;;;;;;;15.28;84.07;101483.56;5100909;28;20111;-61
2021/09/26 01:06:29;;;;;;;35.05;22.42;;;;;;;15.26;84.13;101483.59;5096362;28;20125;-61
2021/09/26 01:09:10;;;;;;;33.65;21.23;;;;;;;15.26;83.94;101483.59;5102544;28;20036;-60
2021/09/26 01:11:56;;;;;;;37.47;21.23;;;;;;;15.27;83.93;101487.09;5096703;28;20066;-61
2021/09/26 01:14:24;;;;;;;34.75;21.33;;;;;;;15.24;83.94;101474.78;5113311;28;20082;-61
2021/09/26 01:17:19;;;;;;;33.55;22.27;;;;;;;15.24;83.95;101476.56;5092700;28;20200;-61
2021/09/26 01:19:44;;;;;;;32.05;20.63;;;;;;;15.19;84.39;101469.53;5072463;28;20032;-60
2021/09/26 01:22:21;;;;;;;36.22;21.38;;;;;;;15.17;84.43;101462.50;5114869;28;20052;-61
2021/09/26 01:25:04;;;;;;;34.40;21.27;;;;;;;15.12;84.39;101465.22;5112177;28;20073;-61
2021/09/26 01:27:50;;;;;;;36.95;21.45;;;;;;;15.07;84.54;101467.03;5097225;28;20108;-61
2021/09/26 01:30:33;;;;;;;33.92;20.92;;;;;;;15.04;84.82;101458.25;5092657;28;20041;-61
2021/09/26 01:33:04;;;;;;;31.20;21.17;;;;;;;15.01;84.38;101454.75;5089372;28;20115;-60
2021/09/26 01:35:33;;;;;;;38.03;21.20;;;;;;;14.98;84.60;101457.41;5114551;28;20030;-61
2021/09/26 01:38:06;;;;;;;34.63;22.17;;;;;;;14.94;84.96;101463.63;5103636;28;20020;-61
2021/09/26 01:40:45;;;;;;;35.95;22.02;;;;;;;14.93;85.05;101463.63;5099431;28;20059;-60
2021/09/26 01:43:15;;;;;;;35.95;22.13;;;;;;;14.90;84.98;101456.63;5109102;28;20070;-60
2021/09/26 01:45:49;;;;;;;38.08;20.88;;;;;;;14.89;85.09;101459.25;5115658;28;20031;-60
2021/09/26 01:48:22;;;;;;;35.63;22.77;;;;;;;14.85;85.27;101455.78;5103284;28;20039;-61
2021/09/26 01:50:51;;;;;;;34.20;21.55;;;;;;;14.82;85.36;101458.47;5105604;28;20110;-60
2021/09/26 01:53:18;;;;;;;34.15;21.55;;;;;;;14.79;85.78;101450.53;5103458;28;20016;-60
2021/09/26 01:55:48;;;;;;;31.88;21.30;;;;;;;14.77;85.75;101450.56;5109355;28;20448;-60
2021/09/26 01:58:15;;;;;;;34.92;22.38;;;;;;;14.76;85.74;101453.22;5106934;28;20047;-61
2021/09/26 02:00:41;;;;;;;36.28;22.63;;;;;;;14.76;85.81;101453.22;5091070;28;20032;-61
2021/09/26 02:03:07;;;;;;;35.65;21.88;;;;;;;14.78;85.80;101449.69;5093225;28;20089;-60
2021/09/26 02:05:37;;;;;;;36.85;22.10;;;;;;;14.80;85.91;101454.94;5099043;28;20060;-61
2021/09/26 02:08:05;;;;;;;;;;;;;;;14.78;85.64;101452.31;5090061;28;20055;-60
2021/09/26 02:10:32;;;;;;;34.20;20.63;;;;;;;14.76;85.63;101455.84;5100532;28;20387;-61
2021/09/26 02:12:59;;;;;;;30.73;20.15;;;;;;;14.73;85.99;101451.47;5098639;28;20028;-60
2021/09/26 02:15:26;;;;;;;34.65;21.52;;;;;;;14.70;86.00;101451.50;5107553;28;20036;-60
2021/09/26 02:17:53;;;;;;;36.63;22.05;;;;;;;14.69;86.30;101448.84;5110442;28;20024;-61
2021/09/26 02:20:20;;;;;;;34.50;22.10;;;;;;;14.72;86.33;101457.66;5095175;28;20024;-61
2021/09/26 02:22:48;;;;;;;37.50;22.35;;;;;;;14.74;85.92;101455.00;5101655;28;20504;-60
2021/09/26 02:25:15;;;;;;;36.22;22.75;;;;;;;14.77;86.17;101458.50;5101792;28;20123;-61
2021/09/26 02:27:41;;;;;;;32.22;21.65;;;;;;;14.80;85.98;101457.56;5096711;28;20159;-61
2021/09/26 02:30:08;;;;;;;39.25;22.60;;;;;;;14.84;86.02;101456.69;5100919;28;20028;-62
2021/09/26 02:32:34;;;;;;;38.63;23.13;;;;;;;14.87;85.96;101453.97;5106421;28;20024;-61
2021/09/26 02:35:00;;;;;;;36.67;22.83;;;;;;;14.90;85.85;101446.03;5116081;28;20039;-61
2021/09/26 02:37:26;;;;;;;37.92;22.08;;;;;;;14.90;85.49;101453.09;5111181;28;20055;-60
2021/09/26 02:39:52;;;;;;;35.72;22.63;;;;;;;14.91;85.37;101454.84;5104227;28;20043;-61
2021/09/26 02:42:31;;;;;;;36.05;22.42;;;;;;;14.93;85.39;101455.69;5089680;28;20104;-61
2021/09/26 02:45:11;;;;;;;31.42;21.10;;;;;;;14.95;85.73;101443.31;5103412;28;20021;-61
2021/09/26 02:47:48;;;;;;;35.97;21.55;;;;;;;14.96;85.96;101445.09;5098337;28;20028;-61
2021/09/26 02:50:16;;;;;;;33.58;21.40;;;;;;;14.97;85.89;101442.44;5092051;28;20024;-61
2021/09/26 02:52:42;;;;;;;40.65;23.58;;;;;;;14.97;85.29;101442.44;5103628;28;20032;-61
2021/09/26 02:55:08;;;;;;;36.72;22.33;;;;;;;14.99;85.52;101445.94;5114896;28;20040;-60
2021/09/26 02:57:35;;;;;;;36.13;21.95;;;;;;;15.00;85.66;101452.09;5110802;28;20115;-61
2021/09/26 03:00:05;;;;;;;36.65;22.13;;;;;;;15.01;85.44;101449.44;5107709;28;20027;-60
2021/09/26 03:02:31;;;;;;;32.58;21.10;;;;;;;15.02;85.33;101448.53;5114280;28;20020;-61
2021/09/26 03:04:57;;;;;;;37.75;22.48;;;;;;;15.04;85.38;101442.34;5092460;28;20029;-60
2021/09/26 03:07:22;;;;;;;32.17;21.27;;;;;;;15.04;85.04;101430.00;5102801;28;20063;-60
2021/09/26 03:09:48;;;;;;;30.65;21.40;;;;;;;15.04;85.26;101427.34;5102258;28;20036;-60
2021/09/26 03:12:16;;;;;;;35.42;22.63;;;;;;;15.06;85.28;101419.41;5108019;28;20068;-61
2021/09/26 03:14:42;;;;;;;33.40;21.23;;;;;;;15.05;85.80;101423.81;5098584;28;20329;-61
2021/09/26 03:17:08;;;;;;;34.90;22.35;;;;;;;15.05;85.84;101429.13;5092479;28;20024;-61
2021/09/26 03:19:34;;;;;;;37.42;22.02;;;;;;;15.08;85.50;101433.50;5099734;28;20025;-60
2021/09/26 03:22:01;;;;;;;35.22;22.65;;;;;;;15.08;85.41;101423.78;5074316;28;20051;-62
2021/09/26 03:24:27;;;;;;;34.55;21.45;;;;;;;15.08;85.36;101428.19;5109612;28;20432;-61
2021/09/26 03:26:53;;;;;;;33.13;22.15;;;;;;;15.09;85.48;101416.72;5106475;28;20087;-61
2021/09/26 03:29:18;;;;;;;33.55;21.80;;;;;;;15.11;85.15;101412.28;5098637;28;20032;-61
2021/09/26 03:31:44;;;;;;;35.58;22.58;;;;;;;15.11;85.19;101421.09;5112857;28;20028;-60
2021/09/26 03:34:09;;;;;;;33.65;21.52;;;;;;;15.12;85.01;101414.03;5095661;28;20056;-60
2021/09/26 03:36:34;;;;;;;30.80;20.70;;;;;;;15.13;85.23;101418.44;5103234;28;20040;-61
2021/09/26 03:39:00;;;;;;;34.95;21.85;;;;;;;15.14;85.23;101409.59;5107800;28;20059;-61
2021/09/26 03:41:25;;;;;;;30.38;21.05;;;;;;;15.14;85.63;101415.78;5087013;28;20029;-61
2021/09/26 03:43:50;;;;;;;36.75;21.35;;;;;;;15.15;85.73;101414.88;5097106;28;20484;-61
2021/09/26 03:46:16;;;;;;;33.42;21.50;;;;;;;15.16;85.26;101411.34;5090602;28;20056;-60
2021/09/26 03:48:41;;;;;;;32.45;21.20;;;;;;;15.16;85.08;101406.06;5096708;28;20471;-61
2021/09/26 03:51:07;;;;;;;36.50;22.02;;;;;;;15.16;85.05;101415.75;5105156;28;20040;-61
2021/09/26 03:53:32;;;;;;;31.45;21.05;;;;;;;15.16;84.74;101407.78;5110235;28;20036;-61
2021/09/26 03:55:57;;;;;;;35.92;21.50;;;;;;;15.17;84.86;101409.56;5115331;28;20042;-60
2021/09/26 03:58:23;;;;;;;33.83;21.65;;;;;;;15.15;84.99;101403.41;5123434;28;20131;-62
2021/09/26 04:00:48;;;;;;;32.08;21.23;;;;;;;15.16;85.44;101399.84;5114149;28;20032;-60
2021/09/26 04:03:13;;;;;;;34.92;21.48;;;;;;;15.16;85.94;101411.34;5091558;28;20061;-60
2021/09/26 04:05:39;;;;;;;34.97;21.90;;;;;;;15.15;85.34;101408.72;5088781;28;20036;-61
2021/09/26 04:08:04;;;;;;;31.13;22.30;;;;;;;15.15;86.21;101398.13;5091876;28;20040;-60
2021/09/26 04:10:29;;;;;;;32.25;21.52;;;;;;;15.15;86.00;101401.63;5112160;28;20036;-60
2021/09/26 04:12:55;;;;;;;40.15;23.30;;;;;;;15.17;86.82;101402.50;5092622;28;20066;-60
2021/09/26 04:15:20;;;;;;;33.72;22.42;;;;;;;15.15;86.19;101412.22;5113187;28;20068;-60
2021/09/26 04:17:46;;;;;;;33.08;22.42;;;;;;;15.14;85.92;101405.19;5099612;28;20072;-61
2021/09/26 04:20:11;;;;;;;34.25;22.55;;;;;;;15.13;85.73;101402.56;5104663;28;20031;-61
2021/09/26 04:22:37;;;;;;;33.60;21.90;;;;;;;15.14;86.20;101404.28;5088858;28;20028;-59
2021/09/26 04:25:05;;;;;;;32.35;21.25;;;;;;;15.15;86.09;101406.06;5093681;28;20476;-60
2021/09/26 04:27:30;;;;;;;32.92;21.50;;;;;;;15.12;86.05;101399.06;5114172;28;20491;-62
2021/09/26 04:29:55;;;;;;;33.35;22.98;;;;;;;15.11;86.36;101396.41;5101652;28;20051;-60
2021/09/26 04:32:21;;;;;;;38.72;23.45;;;;;;;15.12;86.57;101401.69;5092541;28;20032;-60
2021/09/26 04:34:47;;;;;;;33.60;22.17;;;;;;;15.14;87.16;101399.91;5104273;28;20074;-60
2021/09/26 04:37:12;;;;;;;32.55;22.00;;;;;;;15.15;86.83;101398.13;5103404;28;20046;-60
2021/09/26 04:39:38;;;;;;;37.17;23.48;;;;;;;15.14;86.78;101409.59;5104025;28;20040;-60
2021/09/26 04:42:05;;;;;;;32.28;23.08;;;;;;;15.14;86.68;101406.94;5085620;28;20028;-60
2021/09/26 04:44:30;;;;;;;36.45;23.10;;;;;;;15.13;86.80;101416.66;5097369;28;20028;-61
2021/09/26 04:46:56;;;;;;;36.55;22.80;;;;;;;15.13;86.91;101407.84;5102749;28;20035;-60
2021/09/26 04:49:27;;;;;;;33.30;23.05;;;;;;;15.15;87.03;101409.56;5108601;28;20552;-60
2021/09/26 04:51:53;;;;;;;36.40;23.70;;;;;;;15.14;86.94;101402.56;5097040;28;20028;-60
2021/09/26 04:54:18;;;;;;;38.95;23.10;;;;;;;15.14;87.09;101406.94;5099152;28;20043;-60
2021/09/26 04:56:43;;;;;;;37.08;23.35;;;;;;;15.15;87.14;101411.34;5094109;28;20032;-61
2021/09/26 04:59:09;;;;;;;34.80;23.20;;;;;;;15.14;87.19;101399.91;5099980;28;20062;-60
2021/09/26 05:01:34;;;;;;;40.67;23.90;;;;;;;15.14;86.95;101406.94;5082411;28;20099;-61
2021/09/26 05:03:59;;;;;;;34.05;23.38;;;;;;;15.15;87.26;101404.28;5104564;28;20039;-60
2021/09/26 05:06:25;;;;;;;35.10;23.10;;;;;;;15.16;87.18;101402.50;5110429;28;20052;-61
2021/09/26 05:08:50;;;;;;;36.42;24.27;;;;;;;15.18;87.26;101398.09;5092617;28;20029;-60
2021/09/26 05:11:15;;;;;;;37.35;24.65;;;;;;;15.17;87.78;101391.91;5103519;28;20050;-60
2021/09/26 05:13:41;;;;;;;39.53;24.00;;;;;;;15.18;87.53;101392.81;5107409;28;20091;-59
2021/09/26 05:16:06;;;;;;;38.25;24.27;;;;;;;15.17;88.06;101391.91;5100083;28;20035;-61
2021/09/26 05:18:32;;;;;;;39.28;25.15;;;;;;;15.15;87.97;101385.75;5100279;28;20035;-60
2021/09/26 05:20:57;;;;;;;38.03;24.30;;;;;;;15.15;88.07;101383.09;5107421;28;20504;-59
2021/09/26 05:23:23;;;;;;;38.05;25.13;;;;;;;15.16;88.24;101387.53;5109620;28;20038;-59
2021/09/26 05:25:49;;;;;;;36.22;23.92;;;;;;;15.17;88.19;101391.91;5098829;28;20833;-60
2021/09/26 05:28:15;;;;;;;41.08;26.40;;;;;;;15.16;88.33;101378.69;5088641;28;20043;-59
2021/09/26 05:30:40;;;;;;;40.22;25.75;;;;;;;15.17;88.60;101391.03;5089050;28;20020;-59
2021/09/26 05:33:06;;;;;;;40.20;25.88;;;;;;;15.15;88.58;101383.09;5101387;28;20071;-59
2021/09/26 05:35:32;;;;;;;39.17;25.55;;;;;;;15.17;88.69;101389.25;5107961;28;20032;-60
2021/09/26 05:37:58;;;;;;;37.95;25.67;;;;;;;15.17;88.51;101383.97;5100213;28;20081;-59
2021/09/26 05:40:24;;;;;;;41.10;26.83;;;;;;;15.18;88.47;101387.50;5072402;28;20032;-60
2021/09/26 05:42:50;;;;;;;38.58;26.30;;;;;;;15.20;88.66;101391.00;5098589;28;20503;-60
2021/09/26 05:45:16;;;;;;;39.15;26.70;;;;;;;15.21;88.29;101398.03;5100442;28;20109;-60
2021/09/26 05:47:42;;;;;;;38.10;25.63;;;;;;;15.23;88.56;101400.69;5098805;28;20032;-60
2021/09/26 05:50:08;;;;;;;39.05;26.42;;;;;;;15.23;88.23;101405.97;5116721;28;20317;-61
2021/09/26 05:52:33;;;;;;;38.00;24.52;;;;;;;15.26;88.36;101411.25;5100581;28;20040;-60
2021/09/26 05:54:58;;;;;;;44.08;26.42;;;;;;;15.28;88.56;101410.31;5096665;28;20033;-59
2021/09/26 05:57:24;;;;;;;41.63;26.48;;;;;;;15.30;88.60;101412.94;5108337;28;20028;-60
2021/09/26 05:59:49;;;;;;;42.70;27.48;;;;;;;15.28;88.92;101410.31;5113127;28;20091;-60
2021/09/26 06:02:22;;;;;;;39.75;26.40;;;;;;;15.29;89.05;101412.09;5094247;28;20020;-60
2021/09/26 06:04:48;;;;;;;40.70;25.85;;;;;;;15.29;89.12;101411.19;5113724;28;20032;-60
2021/09/26 06:07:13;;;;;;;39.15;27.45;;;;;;;15.30;89.36;101408.53;5110943;28;20095;-60
2021/09/26 06:09:38;;;;;;;41.28;26.58;;;;;;;15.28;89.27;101410.31;5106307;28;20132;-60
2021/09/26 06:12:04;;;;;;;39.90;25.52;;;;;;;15.29;89.57;101406.78;5093832;28;20058;-60
2021/09/26 06:14:30;;;;;;;40.67;26.85;;;;;;;15.31;89.38;101417.34;5102721;28;20052;-60
2021/09/26 06:16:55;;;;;;;40.88;27.00;;;;;;;15.31;89.66;101419.97;5095822;28;20031;-60
2021/09/26 06:19:20;;;;;;;43.15;26.83;;;;;;;15.31;89.52;101412.94;5101405;28;20438;-60
2021/09/26 06:21:46;;;;;;;40.40;27.40;;;;;;;15.33;89.72;101415.53;5098517;28;20040;-60
2021/09/26 06:24:12;;;;;;;43.00;27.25;;;;;;;15.35;89.71;101406.72;5098976;28;20031;-60
2021/09/26 06:26:38;;;;;;;39.17;26.38;;;;;;;15.36;89.77;101411.09;5101610;28;20034;-60
2021/09/26 06:29:03;;;;;;;40.10;27.33;;;;;;;15.36;89.73;101407.56;5109084;28;20055;-61
2021/09/26 06:31:29;;;;;;;41.58;26.45;;;;;;;15.37;89.76;101412.84;5099651;28;20087;-60
2021/09/26 06:33:54;;;;;;;46.55;28.40;;;;;;;15.36;89.60;101405.78;5096629;28;20036;-61
2021/09/26 06:36:19;;;;;;;44.60;28.08;;;;;;;15.42;89.94;101411.91;5084359;28;20040;-60
2021/09/26 06:38:45;;;;;;;39.28;26.73;;;;;;;15.43;89.62;101417.19;5098744;28;20479;-60
2021/09/26 06:41:12;;;;;;;43.20;28.17;;;;;;;15.46;89.75;101418.91;5097515;28;20032;-60
2021/09/26 06:43:37;;;;;;;43.80;28.73;;;;;;;15.48;89.86;101422.41;5104836;28;20076;-60
2021/09/26 06:46:03;;;;;;;46.38;28.10;;;;;;;15.50;89.73;101424.19;5088638;28;20028;-60
2021/09/26 06:48:28;;;;;;;38.75;27.40;;;;;;;15.53;89.91;101425.91;5108373;28;20032;-60
2021/09/26 06:50:54;;;;;;;40.65;26.95;;;;;;;15.55;89.28;101435.56;5087728;28;20089;-61
2021/09/26 06:53:19;;;;;;;38.80;25.75;;;;;;;15.59;89.54;101439.06;5100105;28;20519;-60
2021/09/26 06:55:44;;;;;;;42.85;27.15;;;;;;;15.65;89.58;101440.75;5112664;28;20034;-60
2021/09/26 06:58:10;;;;;;;40.05;26.55;;;;;;;15.70;89.43;101434.50;5090713;28;20051;-60
2021/09/26 07:00:35;;;;;;;41.35;27.20;;;;;;;15.75;89.12;101434.47;5103238;28;20022;-60
2021/09/26 07:03:00;;;;;;;41.50;28.02;;;;;;;15.81;88.65;101433.53;5100963;28;20039;-60
2021/09/26 07:05:26;;;;;;;37.92;25.77;;;;;;;15.89;88.72;101434.28;5101146;28;20072;-60
2021/09/26 07:07:51;;;;;;;39.10;26.02;;;;;;;15.93;88.31;101436.84;5093205;28;20066;-60
2021/09/26 07:10:18;;;;;;;39.20;27.60;;;;;;;16.00;88.96;101436.78;5089127;28;20115;-60
2021/09/26 07:12:43;;;;;;;37.03;25.77;;;;;;;16.07;89.11;101443.75;5094695;28;20028;-60
2021/09/26 07:15:09;;;;;;;39.25;27.60;;;;;;;16.11;89.02;101437.50;5101816;28;20024;-60
2021/09/26 07:17:35;;;;;;;38.17;26.48;;;;;;;16.14;88.49;101440.06;5091047;28;20024;-61
2021/09/26 07:20:00;;;;;;;40.70;26.63;;;;;;;16.17;88.23;101440.91;5098633;28;20098;-60
2021/09/26 07:22:25;;;;;;;36.60;25.52;;;;;;;16.20;87.27;101445.31;5100948;28;20029;-61
2021/09/26 07:24:54;;;;;;;37.15;26.05;;;;;;;16.25;86.92;101443.44;5103012;28;20033;-61
2021/09/26 07:27:22;;;;;;;34.10;24.00;;;;;;;16.40;86.92;101447.63;5093759;28;20031;-60
2021/09/26 07:29:47;;;;;;;35.90;24.85;;;;;;;16.56;86.29;101450.91;5107182;28;20057;-60
2021/09/26 07:32:14;;;;;;;36.58;24.58;;;;;;;16.75;85.50;101457.66;5087008;28;20157;-61
2021/09/26 07:34:40;;;;;;;32.47;24.25;;;;;;;16.96;84.69;101450.25;5105483;28;20036;-61
2021/09/26 07:37:07;;;;;;;28.77;21.75;;;;;;;17.23;84.97;101454.13;5101052;28;20140;-61
2021/09/26 07:39:32;;;;;;;28.83;21.45;;;;;;;17.47;83.75;101439.50;5106903;28;20036;-60
2021/09/26 07:41:58;;;;;;;34.95;22.75;;;;;;;17.63;82.54;101439.16;5094401;28;20035;-60
2021/09/26 07:44:23;;;;;;;29.17;23.23;;;;;;;17.72;81.73;101438.97;5114950;28;20127;-60
2021/09/26 07:46:50;;;;;;;27.77;21.42;;;;;;;17.81;81.23;101437.91;5100816;28;20063;-60
2021/09/26 07:49:15;;;;;;;27.67;21.10;;;;;;;17.88;80.97;101444.84;5107021;28;20032;-60
2021/09/26 07:51:41;;;;;;;29.85;20.63;;;;;;;17.97;80.27;101449.97;5117268;28;20050;-60
2021/09/26 07:54:07;;;;;;;28.27;21.67;;;;;;;18.09;80.21;101452.34;5102221;28;20028;-60
2021/09/26 07:56:32;;;;;;;29.08;21.25;;;;;;;18.19;79.21;101465.44;5094937;28;20088;-61
2021/09/26 07:58:58;;;;;;;27.70;21.15;;;;;;;18.20;80.47;101469.81;5118846;28;20031;-60
2021/09/26 08:01:23;;;;;;;28.48;21.88;;;;;;;18.19;81.17;101478.72;5089193;28;20024;-60
2021/09/26 08:03:49;;;;;;;30.67;21.95;;;;;;;18.14;81.35;101486.81;5095210;28;20053;-61
2021/09/26 08:06:16;;;;;;;29.48;21.95;;;;;;;18.09;81.18;101488.69;5087405;28;20111;-59
2021/09/26 08:08:42;;;;;;;27.77;21.20;;;;;;;18.01;79.49;101488.84;5104966;28;20058;-59
2021/09/26 08:11:07;;;;;;;30.10;21.70;;;;;;;17.98;80.30;101488.94;5110128;28;20068;-60
2021/09/26 08:13:32;;;;;;;30.77;22.30;;;;;;;17.96;79.92;101488.09;5108393;28;20056;-60
2021/09/26 08:15:58;;;;;;;31.58;22.80;;;;;;;17.96;81.04;101479.22;5114157;28;20043;-60
2021/09/26 08:18:23;;;;;;;32.83;22.27;;;;;;;17.97;80.71;101473.88;5094118;28;20031;-60
2021/09/26 08:20:48;;;;;;;28.70;21.83;;;;;;;17.99;82.09;101487.16;5097938;28;20086;-61
2021/09/26 08:23:14;;;;;;;31.17;22.85;;;;;;;17.96;81.04;101487.22;5074576;28;20040;-60
2021/09/26 08:25:39;;;;;;;31.73;24.83;;;;;;;17.97;81.23;101489.84;5098601;28;20524;-59
2021/09/26 08:28:05;;;;;;;32.90;23.65;;;;;;;17.97;80.58;101489.84;5096840;28;20040;-61
2021/09/26 08:30:30;;;;;;;36.38;23.38;;;;;;;18.03;80.31;101495.00;5092178;28;20028;-60
2021/09/26 08:32:56;;;;;;;32.20;23.48;;;;;;;18.11;80.01;101485.09;5099800;28;20017;-61
2021/09/26 08:35:21;;;;;;;27.33;21.77;;;;;;;18.18;80.28;101488.47;5093593;28;20427;-60
2021/09/26 08:37:47;;;;;;;27.00;21.27;;;;;;;18.29;79.82;101482.91;5097777;28;20035;-59
2021/09/26 08:40:13;;;;;;;27.83;22.63;;;;;;;18.36;79.41;101481.00;5098649;28;20032;-60
2021/09/26 08:42:39;;;;;;;28.15;21.42;;;;;;;18.41;78.29;101487.97;5094879;28;20028;-60
2021/09/26 08:45:07;;;;;;;29.17;22.75;;;;;;;18.44;78.92;101498.50;5094554;28;20076;-61
2021/09/26 08:47:36;;;;;;;34.15;22.85;;;;;;;18.44;79.01;101489.66;5099323;28;20028;-60
2021/09/26 08:50:03;;;;;;;29.88;23.10;;;;;;;18.41;78.62;101487.97;5097231;28;20035;-60
2021/09/26 08:52:29;;;;;;;34.50;24.08;;;;;;;18.40;79.41;101488.84;5101329;28;20036;-60
2021/09/26 08:54:54;;;;;;;29.55;22.25;;;;;;;18.39;78.17;101488.88;5100338;28;20032;-60
2021/09/26 08:57:22;;;;;;;32.13;22.70;;;;;;;18.37;78.43;101488.06;5093738;28;20032;-61
2021/09/26 08:59:47;;;;;;;29.05;22.67;;;;;;;18.31;77.87;101494.38;5091199;28;20100;-61
2021/09/26 09:02:13;;;;;;;31.13;22.83;;;;;;;18.31;79.52;101497.03;5091594;28;20028;-63
2021/09/26 09:04:41;;;;;;;28.00;22.50;;;;;;;18.30;79.09;101495.31;5090555;28;20256;-62
2021/09/26 09:07:10;;;;;;;30.35;22.90;;;;;;;18.29;79.33;101499.75;5091361;28;20059;-61
2021/09/26 09:09:57;;;;;;;30.87;23.43;;;;;;;18.29;79.53;101498.88;5092844;28;20025;-61
2021/09/26 09:12:36;;;;;;;32.15;23.40;;;;;;;18.26;78.88;101509.56;5093053;28;20036;-63
2021/09/26 09:15:07;;;;;;;29.85;23.30;;;;;;;18.21;79.76;101507.03;5091241;28;20085;-61
2021/09/26 09:17:36;;;;;;;32.53;23.98;;;;;;;18.20;80.92;101497.28;5097983;28;20083;-61
2021/09/26 09:20:25;;;;;;;30.17;22.33;;;;;;;18.16;79.49;101503.59;5091949;28;20024;-62
2021/09/26 09:22:54;;;;;;;33.63;23.90;;;;;;;18.16;80.76;101514.22;5092638;28;20032;-60
2021/09/26 09:25:34;;;;;;;34.13;23.95;;;;;;;18.14;81.48;101510.72;5092839;28;20035;-61
2021/09/26 09:28:01;;;;;;;29.10;23.25;;;;;;;18.14;79.93;101515.19;5095285;28;20123;-63
2021/09/26 09:30:39;;;;;;;29.00;21.90;;;;;;;18.18;79.08;101517.72;5097055;28;20088;-62
2021/09/26 09:33:06;;;;;;;31.38;22.90;;;;;;;18.21;79.40;101525.66;5095549;28;20033;-62
2021/09/26 09:35:46;;;;;;;33.47;23.80;;;;;;;18.26;80.02;101517.56;5091344;28;20071;-61
2021/09/26 09:38:16;;;;;;;35.15;23.50;;;;;;;18.33;79.23;101524.50;5090554;28;20020;-61
2021/09/26 09:40:42;;;;;;;30.90;24.17;;;;;;;18.40;79.26;101523.44;5094181;28;20024;-62
2021/09/26 09:43:08;;;;;;;31.40;24.08;;;;;;;18.49;79.06;101523.22;5094096;28;20450;-62
2021/09/26 09:45:45;;;;;;;32.17;23.02;;;;;;;18.58;78.37;101524.81;5091861;28;20055;-63
2021/09/26 09:48:20;;;;;;;31.13;23.92;;;;;;;18.65;77.22;101529.03;5093345;28;20502;-62
2021/09/26 09:50:59;;;;;;;29.67;20.92;;;;;;;18.76;77.52;101526.13;5088024;28;20054;-61
2021/09/26 09:53:33;;;;;;;29.55;22.52;;;;;;;18.85;77.42;101520.59;5088356;28;20117;-62
2021/09/26 09:56:20;;;;;;;30.67;22.42;;;;;;;18.97;77.25;101529.19;5096064;28;20024;-63
2021/09/26 09:58:51;;;;;;;31.17;22.55;;;;;;;19.08;76.82;101533.31;5094333;28;20065;-62
2021/09/26 10:01:33;;;;;;;27.10;21.33;;;;;;;19.26;76.22;101531.06;5099115;28;20035;-62
2021/09/26 10:04:06;;;;;;;27.00;21.30;;;;;;;19.38;74.18;101519.22;5098891;28;20024;-61
2021/09/26 10:06:40;;;;;;;27.10;21.15;;;;;;;19.45;73.52;101520.78;5096890;28;20083;-62
2021/09/26 10:09:19;;;;;;;28.67;21.23;;;;;;;19.52;73.19;101522.38;5092964;28;20102;-61
2021/09/26 10:11:48;;;;;;;27.92;21.60;;;;;;;19.54;72.31;101517.00;5098299;28;20046;-62
2021/09/26 10:14:14;;;;;;;26.85;20.75;;;;;;;19.61;73.99;101521.25;5090622;28;20032;-60
2021/09/26 10:16:40;;;;;;;24.33;19.73;;;;;;;19.77;73.48;101522.59;5093149;28;20024;-61
2021/09/26 10:19:06;;;;;;;25.95;19.15;;;;;;;20.00;72.29;101518.34;5093267;28;20020;-60
2021/09/26 10:21:32;;;;;;;25.05;19.25;;;;;;;20.17;71.27;101516.06;5089503;28;20043;-65
2021/09/26 10:23:58;;;;;;;24.90;20.45;;;;;;;20.19;70.56;101519.53;5100281;28;20047;-63
2021/09/26 10:26:26;;;;;;;29.90;19.65;;;;;;;20.19;70.71;101518.69;5090678;28;20025;-61
2021/09/26 10:28:57;;;;;;;24.03;18.20;;;;;;;20.18;70.77;101511.59;5093911;28;20499;-61
2021/09/26 10:31:27;;;;;;;24.10;18.13;;;;;;;20.17;70.83;101517.81;5091705;28;20102;-63
2021/09/26 10:33:56;;;;;;;20.73;17.08;;;;;;;20.18;70.41;101520.44;5095972;28;20107;-62
2021/09/26 10:36:23;;;;;;;21.80;16.13;;;;;;;20.21;69.17;101522.16;5097822;28;20024;-62
2021/09/26 10:38:52;;;;;;;20.15;16.08;;;;;;;20.23;68.69;101528.31;5094568;28;20175;-61
2021/09/26 10:41:18;;;;;;;20.92;15.55;;;;;;;20.26;69.34;101514.88;5098482;28;20062;-63
2021/09/26 10:43:44;;;;;;;20.73;15.05;;;;;;;20.35;69.00;101530.59;5101919;28;20032;-61
2021/09/26 10:46:15;;;;;;;21.98;15.65;;;;;;;20.44;66.65;101527.63;5098275;28;20034;-62
2021/09/26 10:48:55;;;;;;;18.00;14.13;;;;;;;20.46;67.17;101524.94;5096698;28;20039;-62
2021/09/26 10:51:49;;;;;;;21.35;14.38;;;;;;;20.46;66.07;101516.91;5089511;28;20091;-62
2021/09/26 10:54:23;;;;;;;17.80;13.50;;;;;;;20.53;66.00;101514.91;5093047;28;20036;-62
2021/09/26 10:57:04;;;;;;;16.40;12.18;;;;;;;20.57;66.32;101520.13;5099626;28;20047;-61
2021/09/26 10:59:47;;;;;;;18.10;14.02;;;;;;;20.59;65.99;101518.25;5096547;28;20040;-62
2021/09/26 11:02:22;;;;;;;14.10;11.75;;;;;;;20.66;66.83;101516.28;5096877;28;20054;-62
2021/09/26 11:04:50;;;;;;;21.02;16.05;;;;;;;20.59;64.95;101515.59;5097808;28;20077;-63
2021/09/26 11:07:17;;;;;;;18.83;15.13;;;;;;;20.59;65.79;101525.41;5107005;28;20143;-63
2021/09/26 11:09:51;;;;;;;17.15;14.27;;;;;;;20.66;65.54;101518.09;5090594;28;20086;-62
2021/09/26 11:12:43;;;;;;;19.52;13.25;;;;;;;20.72;65.99;101512.53;5086785;28;20046;-62